Relevés horaires Spa / La Sauveniere (Belgique)


Relevés horaires à Spa / La Sauveniere - Vendredi 20 Janv. 2017
Heure UTC1 Température [°C] Vent [km/h] Hum. [%] Pres.4 [hPa] Visi. [Km] Nébu. [octa] Préc.5 [mm] Cond.
2m. Res. Ros. Dir.2 Vit. Moy. Raf.3
23:00 -0.9 -4.7 -8.1 ESE 11.1 13.0 18.5 58 1031.4(-0.8/3h) 45 0/8 -- --
22:00 -0.5 -4.6 -8.1 ESE 13.0 13.0 20.4 56 1031.6(-0.7/3h) 50 0/8 -- --
21:00 -0.6 -3.8 -7.4 ESE 9.3 11.1 14.8 60 1032(-0.4/3h) 50 0/8 -- --
20:00 -0.9 -4.2 -8.4 ESE 9.3 9.3 13.0 57 1032.2(-0.3/3h) 50 0/8 -- --
19:00 -1.0 -4.3 -10.5 ESE 9.3 9.3 13.0 48 1032.5(-0.3/3h) 45 0/8 -- --
18:00 -0.9 -4.2 -13.2 ESE 9.3 11.1 16.7 39 1032.5(-0.5/3h) 45 0/8 0/12h
--
17:00 -0.9 -3.6 -11.1 ESE 7.4 7.4 11.1 46 1032.6(-0.5/3h) 45 0/8 -- --
16:00 0.3 -2.2 -10.1 ESE 7.4 7.4 11.1 45 1032.5(-0.6/3h) 50 0/8 -- --
15:00 1.7 0.1 -9.9 ESE 5.6 11.1 16.7 42 1032.4(-0.5/3h) 45 0/8 -- --
14:00 2.9 0.8 -9.1 E 7.4 7.4 11.1 41 1032.2(-1.0/3h) 45 0/8 -- --
13:00 2.3 0.8 -8.5 ESE 5.6 11.1 16.7 45 1032.6(-0.6/3h) 40 0/8 -- --
12:00 1.6 -1.2 -9.0 SE 9.3 14.8 22.2 45 1033(-0.4/3h) 35 0/8 0/6h
--
11:00 0.3 -2.2 -10.3 ESE 7.4 11.1 16.7 45 1033.8(0.3/3h) 35 0/8 -- --
10:00 -1.1 -4.9 -11.8 SE 11.1 14.8 20.4 44 1034(0.1/3h) 35 0/8 -- --
09:00 -2.4 -7.3 -13.3 SE 14.8 14.8 22.2 43 1034.3(-0.1/3h) 45 0/8 -- --
08:00 -2.3 -6.8 -14.4 SE 13.0 14.8 20.4 39 1034.1(-0.4/3h) 45 0/8 -- --
07:00 -3.2 -7.9 -11.4 SE 13.0 14.8 20.4 53 1034.4(-0.5/3h) 50 0/8 -- --
06:00 -3.0 -7.7 -12.6 SE 13.0 13.0 18.5 47 1034.4(-0.3/3h) 50 0/8 0/12h
--
05:00 -2.2 -5.1 -8.8 ESE 7.4 9.3 13.0 60 1034.4(0.1/3h) 45 0/8 -- --
04:00 -2.8 -6.5 -10.0 ESE 9.3 11.1 14.8 57 1034.8(0.2/3h) 45 0/8 -- --
03:00 -3.4 -7.2 -10.1 SE 9.3 13.0 16.7 60 1034.8(-0.5/3h) 50 0/8 -- --
02:00 -3.2 -7.4 -9.4 SE 11.1 11.1 16.7 62 1034.8(-1.0/3h) 45 0/8 -- --
01:00 -2.7 -6.3 -9.2 ESE 9.3 9.3 14.8 61 1034.6(-1.3/3h) 50 0/8 -- --
00:00 -3.6 -3.6 -10.1 ESE 3.7 7.4 11.1 61 1035.4(-1.0/3h) 45 0/8 0/6h
0/24h
--

1 Coordinated Universal Time. Actuellement il est 17:00 locale et 16:00 UTC.

2 Le vent souffle depuis la direction indiquée vers la direction oposée.

3 Les rafales max. sont disponible 40 min après l'heure du relevé.

4 Pour les stations d'altitude (plus de 600m) le géopotentiel du niveau le plus proche de la pression obligatoire est indiqué.

5 Les stations disposant d'un diffuseur peuvent indiquer "trace". Cela signifie que des précipitations ont touchés le sol mais que la quantité est inférieure à 0.1 mm.

Récapitulatif de la journée
Température [°C] Vent [km/h] Ensoleillement4 [h] Precipitations totale5 [mm] Pression [Hpa]
Min1 Max.2 Moy.3 Max. Min Max.
-5.9 3.0 11.3 22.2 0 h 0 min 0 1031.4 1035.4

1 Température minimale relevée entre 18:00 UTC la veille et 18:00 UTC le jour donné.

2 Température maximale relevée entre 06:00 UTC le jour donné et 06:00 UTC le lendemain.

3 Vent moyen de la journée basé sur les relevés horaires.

4 Ensoleillement en heures relevé entre 06:00 UTC la veille et 06:00 UTC le jour donné.

5 Précipitations totales tombées entre 06:00 UTC la jour donné et 06:00 UTC le lendemain.

Graphiques horaires